createdAt,value
2023-04-16T00:05:00.834Z,85.25
2023-04-16T00:10:05.801Z,85.29
2023-04-16T00:15:09.500Z,85.19
2023-04-16T00:20:12.507Z,85.17
2023-04-16T00:25:16.710Z,85.73
2023-04-16T00:30:19.650Z,84.94
2023-04-16T00:35:22.651Z,85.12
2023-04-16T00:40:29.679Z,85.25
2023-04-16T00:45:32.637Z,85.18
2023-04-16T00:50:35.678Z,85.22
2023-04-16T00:55:40.912Z,85.08
2023-04-16T01:00:43.896Z,85.17
2023-04-16T01:05:49.281Z,85.23
2023-04-16T01:10:53.477Z,85.23
2023-04-16T01:15:56.296Z,85.16
2023-04-16T01:21:01.027Z,85.25
2023-04-16T01:26:03.962Z,85.35
2023-04-16T01:31:06.901Z,85.33
2023-04-16T01:36:40.914Z,85.37
2023-04-16T01:41:44.027Z,85.24
2023-04-16T01:46:46.977Z,84.80
2023-04-16T01:51:53.020Z,84.85
2023-04-16T01:56:55.919Z,84.93
2023-04-16T02:02:02.354Z,84.82
2023-04-16T02:07:06.806Z,84.64
2023-04-16T02:12:11.367Z,84.73
2023-04-16T02:17:15.492Z,84.47
2023-04-16T02:22:20.689Z,84.21
2023-04-16T02:27:24.243Z,84.25
2023-04-16T02:32:34.113Z,84.08
2023-04-16T02:37:40.811Z,84.43
2023-04-16T02:42:43.790Z,84.88
2023-04-16T02:47:46.694Z,84.83
2023-04-16T02:52:51.589Z,84.70
2023-04-16T02:57:54.564Z,84.36
2023-04-16T03:02:57.630Z,84.63
2023-04-16T03:08:02.020Z,83.78
2023-04-16T03:13:06.024Z,83.77
2023-04-16T03:18:08.852Z,83.62
2023-04-16T03:23:13.081Z,82.84
2023-04-16T03:28:16.188Z,82.94
2023-04-16T03:33:19.391Z,82.77
2023-04-16T03:38:23.934Z,83.15
2023-04-16T03:43:27.305Z,82.66
2023-04-16T03:48:30.436Z,82.82
2023-04-16T03:53:35.856Z,82.63
2023-04-16T03:58:38.836Z,82.83
2023-04-16T04:03:41.942Z,82.79
2023-04-16T04:08:46.384Z,82.90
2023-04-16T04:13:50.627Z,82.88
2023-04-16T04:18:53.588Z,82.29
2023-04-16T04:23:59.934Z,81.80
2023-04-16T04:29:05.689Z,82.24
2023-04-16T04:34:08.564Z,82.37
2023-04-16T04:39:12.993Z,82.18
2023-04-16T04:44:19.308Z,82.32
2023-04-16T04:49:22.232Z,82.25
2023-04-16T04:54:26.538Z,82.09
2023-04-16T04:59:29.958Z,82.83
2023-04-16T05:04:33.120Z,82.27
2023-04-16T05:09:38.468Z,82.52
2023-04-16T05:14:41.328Z,82.69
2023-04-16T05:19:44.155Z,82.40
2023-04-16T05:24:48.360Z,81.99
2023-04-16T05:29:51.264Z,81.72
2023-04-16T05:34:54.102Z,81.88
2023-04-16T05:39:58.259Z,82.06
2023-04-16T05:45:01.080Z,81.22
2023-04-16T05:50:03.934Z,81.44
2023-04-16T05:55:08.777Z,81.49
2023-04-16T06:00:12.221Z,80.96
2023-04-16T06:05:15.086Z,81.86
2023-04-16T06:10:19.434Z,81.78
2023-04-16T06:15:22.331Z,80.84
2023-04-16T06:20:25.474Z,81.05
2023-04-16T06:25:29.645Z,80.62
2023-04-16T06:30:32.534Z,80.98
2023-04-16T06:35:35.875Z,80.01
2023-04-16T06:40:40.155Z,79.53
2023-04-16T06:45:42.974Z,79.22
2023-04-16T06:50:45.827Z,79.44
2023-04-16T06:55:50.122Z,79.17
2023-04-16T07:00:53.202Z,79.43
2023-04-16T07:05:56.176Z,78.68
2023-04-16T07:11:00.940Z,78.85
2023-04-16T07:16:03.803Z,78.44
2023-04-16T07:21:06.757Z,79.35
2023-04-16T07:26:11.526Z,79.04
2023-04-16T07:31:14.355Z,78.22
2023-04-16T07:36:17.187Z,78.05
2023-04-16T07:41:21.411Z,78.34
2023-04-16T07:46:24.991Z,78.68
2023-04-16T07:51:29.376Z,77.71
2023-04-16T07:56:33.527Z,76.62
2023-04-16T08:01:36.506Z,75.89
2023-04-16T08:06:39.324Z,76.14
2023-04-16T08:11:43.749Z,76.01
2023-04-16T08:16:47.558Z,76.30
2023-04-16T08:21:50.414Z,73.67
2023-04-16T08:26:57.000Z,72.72
2023-04-16T08:32:03.442Z,75.35
2023-04-16T08:37:06.332Z,74.36
2023-04-16T08:42:15.720Z,72.73
2023-04-16T08:47:18.871Z,72.55
2023-04-16T08:52:24.965Z,73.00
2023-04-16T08:57:36.498Z,74.62
2023-04-16T09:02:39.925Z,72.53
2023-04-16T09:07:43.475Z,68.65
2023-04-16T09:12:47.652Z,70.21
2023-04-16T09:17:50.693Z,69.57
2023-04-16T09:22:53.695Z,70.64
2023-04-16T09:27:57.968Z,68.69
2023-04-16T09:33:16.517Z,69.57
2023-04-16T09:38:19.899Z,69.66
2023-04-16T09:43:24.064Z,69.92
2023-04-16T09:48:33.046Z,69.32
2023-04-16T09:53:36.717Z,69.60
2023-04-16T09:58:41.434Z,68.79
2023-04-16T10:03:44.428Z,67.57
2023-04-16T10:08:49.916Z,67.36
2023-04-16T10:13:54.616Z,66.81
2023-04-16T10:18:58.061Z,67.40
2023-04-16T10:24:01.693Z,68.51
2023-04-16T10:29:08.434Z,69.13
2023-04-16T10:34:11.883Z,69.74
2023-04-16T10:39:17.107Z,69.81
2023-04-16T10:44:21.700Z,69.09
2023-04-16T10:49:25.573Z,70.35
2023-04-16T10:54:29.989Z,71.15
2023-04-16T10:59:35.916Z,71.28
2023-04-16T11:04:40.439Z,70.83
2023-04-16T11:09:57.632Z,70.56
2023-04-16T11:15:03.228Z,71.45
2023-04-16T11:20:21.163Z,72.45
2023-04-16T11:25:25.415Z,73.11
2023-04-16T11:30:35.097Z,73.92
2023-04-16T11:35:39.225Z,73.88
2023-04-16T11:40:43.484Z,73.80
2023-04-16T11:45:58.522Z,73.26
2023-04-16T11:51:01.473Z,71.95
2023-04-16T11:56:04.804Z,71.19
2023-04-16T12:01:10.140Z,71.83
2023-04-16T12:06:12.977Z,71.80
2023-04-16T12:11:16.027Z,72.59
2023-04-16T12:16:21.794Z,72.87
2023-04-16T12:21:24.581Z,73.10
2023-04-16T12:26:27.407Z,72.15
2023-04-16T12:31:39.133Z,72.69
2023-04-16T12:36:42.489Z,71.68
2023-04-16T12:41:45.686Z,72.19
2023-04-16T12:46:49.825Z,71.20
2023-04-16T12:51:52.646Z,70.27
2023-04-16T12:56:55.543Z,69.48
2023-04-16T13:02:01.455Z,67.11
2023-04-16T13:07:06.704Z,65.36
2023-04-16T13:12:09.447Z,66.61
2023-04-16T13:17:13.607Z,66.06
2023-04-16T13:22:16.484Z,65.41
2023-04-16T13:27:19.286Z,65.91
2023-04-16T13:32:23.867Z,64.65
2023-04-16T13:37:26.654Z,64.88
2023-04-16T13:42:29.490Z,64.75
2023-04-16T13:47:33.718Z,64.70
2023-04-16T13:52:36.613Z,64.46
2023-04-16T13:57:39.831Z,64.04
2023-04-16T14:02:45.943Z,63.12
2023-04-16T14:07:48.820Z,63.30
2023-04-16T14:12:51.958Z,63.15
2023-04-16T14:17:56.390Z,62.82
2023-04-16T14:22:59.170Z,61.18
2023-04-16T14:28:02.049Z,62.67
2023-04-16T14:33:06.735Z,61.84
2023-04-16T14:38:09.576Z,62.64
2023-04-16T14:43:12.306Z,62.99
2023-04-16T14:48:16.538Z,62.48
2023-04-16T14:53:19.394Z,62.59
2023-04-16T14:58:22.629Z,62.10
2023-04-16T15:03:27.382Z,61.77
2023-04-16T15:08:30.232Z,62.17
2023-04-16T15:13:34.606Z,62.39
2023-04-16T15:18:38.828Z,62.98
2023-04-16T15:23:41.676Z,62.31
2023-04-16T15:28:44.501Z,62.52
2023-04-16T15:33:48.783Z,62.92
2023-04-16T15:38:51.617Z,63.16
2023-04-16T15:43:54.474Z,63.47
2023-04-16T15:48:58.668Z,63.33
2023-04-16T15:54:01.489Z,64.00
2023-04-16T15:59:04.337Z,63.34
2023-04-16T16:04:08.874Z,62.83
2023-04-16T16:09:12.073Z,61.66
2023-04-16T16:14:16.787Z,62.67
2023-04-16T16:19:22.382Z,62.31
2023-04-16T16:24:25.151Z,63.01
2023-04-16T16:29:27.889Z,63.11
2023-04-16T16:34:31.996Z,62.65
2023-04-16T16:39:36.600Z,62.96
2023-04-16T16:44:40.760Z,63.24
2023-04-16T16:49:45.142Z,63.49
2023-04-16T16:54:47.967Z,64.20
2023-04-16T16:59:51.492Z,64.57
2023-04-16T17:04:55.749Z,65.01
2023-04-16T17:10:01.610Z,65.27
2023-04-16T17:15:06.492Z,65.23
2023-04-16T17:20:12.491Z,65.03
2023-04-16T17:25:15.673Z,65.36
2023-04-16T17:30:18.860Z,65.27
2023-04-16T17:35:23.142Z,65.69
2023-04-16T17:40:26.132Z,65.88
2023-04-16T17:45:29.115Z,66.29
2023-04-16T17:50:33.348Z,66.50
2023-04-16T17:55:36.606Z,66.86
2023-04-16T18:00:39.543Z,67.15
2023-04-16T18:05:43.713Z,67.42
2023-04-16T18:10:46.601Z,67.90
2023-04-16T18:15:49.603Z,68.13
2023-04-16T18:20:54.646Z,68.26
2023-04-16T18:25:57.600Z,68.28
2023-04-16T18:31:04.911Z,68.46
2023-04-16T18:36:11.730Z,68.65
2023-04-16T18:41:17.602Z,68.73
2023-04-16T18:46:20.557Z,68.83
2023-04-16T18:51:24.969Z,68.88
2023-04-16T18:56:30.209Z,68.85
2023-04-16T19:01:33.122Z,68.82
2023-04-16T19:06:37.323Z,68.56
2023-04-16T19:11:40.236Z,68.52
2023-04-16T19:16:43.320Z,68.96
2023-04-16T19:21:47.605Z,68.73
2023-04-16T19:26:50.509Z,68.83
2023-04-16T19:31:53.465Z,68.64
2023-04-16T19:36:57.715Z,68.86
2023-04-16T19:42:01.690Z,68.54
2023-04-16T19:47:06.151Z,68.59
2023-04-16T19:52:10.373Z,68.86
2023-04-16T19:57:13.235Z,69.00
2023-04-16T20:02:16.091Z,69.27
2023-04-16T20:07:20.416Z,69.14
2023-04-16T20:12:23.514Z,69.19
2023-04-16T20:17:26.618Z,69.15
2023-04-16T20:22:30.929Z,69.26
2023-04-16T20:27:34.380Z,69.56
2023-04-16T20:32:37.605Z,69.60
2023-04-16T20:37:42.076Z,69.83
2023-04-16T20:42:46.582Z,69.87
2023-04-16T20:47:49.504Z,70.14
2023-04-16T20:52:54.225Z,70.49
2023-04-16T20:57:57.344Z,70.38
2023-04-16T21:03:00.458Z,70.17
2023-04-16T21:08:05.367Z,70.38
2023-04-16T21:13:10.622Z,70.31
2023-04-16T21:18:14.115Z,70.01
2023-04-16T21:23:18.683Z,70.14
2023-04-16T21:28:21.736Z,70.20
2023-04-16T21:33:24.879Z,70.28
2023-04-16T21:38:29.051Z,70.34
2023-04-16T21:43:32.206Z,70.47
2023-04-16T21:48:35.201Z,70.78
2023-04-16T21:53:39.673Z,71.10
2023-04-16T21:58:42.611Z,71.73
2023-04-16T22:03:47.433Z,73.45
2023-04-16T22:08:53.430Z,73.90
2023-04-16T22:13:57.742Z,74.15
2023-04-16T22:19:00.556Z,74.20
2023-04-16T22:24:04.862Z,73.98
2023-04-16T22:29:07.695Z,74.13
2023-04-16T22:34:10.462Z,73.35
2023-04-16T22:39:15.315Z,72.97
2023-04-16T22:44:18.110Z,72.20
2023-04-16T22:49:21.164Z,72.08
2023-04-16T22:54:29.080Z,72.05
2023-04-16T22:59:32.217Z,71.60
2023-04-16T23:04:35.162Z,72.00
2023-04-16T23:09:39.411Z,71.85
2023-04-16T23:14:45.786Z,71.95
2023-04-16T23:19:48.564Z,71.97
2023-04-16T23:24:52.690Z,72.19
2023-04-16T23:29:55.465Z,72.44
2023-04-16T23:34:58.494Z,72.67
2023-04-16T23:40:02.624Z,72.73
2023-04-16T23:45:05.874Z,72.98
2023-04-16T23:50:08.993Z,72.86
2023-04-16T23:55:13.156Z,72.93
